createdAt,value
2017-10-27T03:31:38.210Z,9.80
2017-10-27T03:34:05.794Z,9.80
2017-10-27T03:36:33.377Z,9.80
2017-10-27T03:39:01.010Z,9.70
2017-10-27T03:41:28.594Z,9.70
2017-10-27T03:43:56.174Z,9.60
2017-10-27T03:46:23.822Z,9.50
2017-10-27T03:48:51.406Z,9.40
2017-10-27T03:51:19.749Z,9.10
2017-10-27T03:53:47.346Z,9.10
2017-10-27T03:56:15.710Z,9.00
2017-10-27T03:58:43.286Z,8.90
2017-10-27T04:01:11.631Z,8.90
2017-10-27T04:03:39.418Z,8.90
2017-10-27T04:06:07.798Z,8.90
2017-10-27T04:08:36.146Z,8.90
2017-10-27T04:11:05.258Z,8.80
2017-10-27T04:13:32.950Z,8.80
2017-10-27T04:16:00.556Z,8.80
2017-10-27T04:18:28.176Z,8.80
2017-10-27T04:20:55.750Z,8.80
2017-10-27T04:23:23.335Z,8.80
2017-10-27T04:25:51.027Z,8.80
2017-10-27T04:28:19.378Z,8.80
2017-10-27T04:30:47.062Z,8.80
2017-10-27T04:33:15.543Z,8.80
2017-10-27T04:35:43.934Z,8.70
2017-10-27T04:38:11.614Z,8.70
2017-10-27T04:40:39.442Z,8.70
2017-10-27T04:43:07.790Z,8.70
2017-10-27T04:45:35.386Z,8.70
2017-10-27T04:48:03.735Z,8.90
2017-10-27T04:50:31.471Z,8.90
2017-10-27T04:52:59.085Z,8.90
2017-10-27T04:55:26.678Z,8.90
2017-10-27T04:57:54.347Z,8.90
2017-10-27T05:00:21.950Z,9.10
2017-10-27T05:02:50.341Z,9.20
2017-10-27T05:05:18.772Z,9.20
2017-10-27T05:07:46.527Z,9.20
2017-10-27T05:10:14.122Z,9.20
2017-10-27T05:12:41.704Z,9.30
2017-10-27T05:15:10.174Z,9.20
2017-10-27T05:17:44.138Z,9.20
2017-10-27T05:20:17.403Z,9.20
2017-10-27T05:22:50.714Z,9.20
2017-10-27T05:25:18.328Z,9.30
2017-10-27T05:27:46.701Z,9.10
2017-10-27T05:30:15.087Z,9.20
2017-10-27T05:32:43.563Z,9.20
2017-10-27T05:35:11.914Z,9.20
2017-10-27T05:37:39.514Z,9.20
2017-10-27T05:40:07.093Z,9.20
2017-10-27T05:42:34.818Z,9.30
2017-10-27T05:45:03.190Z,9.30
2017-10-27T05:47:31.534Z,9.30
2017-10-27T05:49:59.224Z,9.30
2017-10-27T05:52:26.801Z,9.30
2017-10-27T05:54:55.147Z,9.30
2017-10-27T05:57:22.754Z,9.30
2017-10-27T05:59:50.342Z,9.20
2017-10-27T06:02:17.930Z,9.20
2017-10-27T06:04:45.562Z,9.20
2017-10-27T06:07:13.138Z,9.10
2017-10-27T06:09:42.226Z,9.10
2017-10-27T06:12:09.845Z,9.20
2017-10-27T06:14:37.470Z,9.20
2017-10-27T06:17:05.814Z,9.20
2017-10-27T06:19:33.510Z,9.30
2017-10-27T06:22:01.926Z,9.30
2017-10-27T06:24:29.502Z,9.20
2017-10-27T06:26:57.085Z,9.20
2017-10-27T06:29:24.701Z,9.30
2017-10-27T06:31:52.281Z,9.30
2017-10-27T06:34:19.912Z,9.30
2017-10-27T06:36:47.497Z,9.30
2017-10-27T06:39:15.125Z,9.30
2017-10-27T06:41:42.729Z,9.30
2017-10-27T06:44:10.301Z,9.30
2017-10-27T06:46:38.045Z,9.40
2017-10-27T06:49:05.663Z,9.40
2017-10-27T06:51:33.241Z,9.40
2017-10-27T06:54:00.822Z,9.40
2017-10-27T06:56:28.425Z,9.40
2017-10-27T06:58:56.778Z,9.40
2017-10-27T07:01:24.541Z,9.40
2017-10-27T07:03:52.125Z,9.40
2017-10-27T07:06:20.499Z,9.40
2017-10-27T07:08:49.021Z,9.40
2017-10-27T07:11:16.610Z,9.40
2017-10-27T07:13:44.294Z,9.40
2017-10-27T07:16:12.675Z,9.30
2017-10-27T07:18:41.023Z,9.30
2017-10-27T07:21:10.251Z,9.40
2017-10-27T07:23:38.602Z,9.40
2017-10-27T07:26:06.193Z,9.40
2017-10-27T07:28:33.842Z,9.40
2017-10-27T07:31:02.218Z,9.40
2017-10-27T07:33:30.603Z,9.40
2017-10-27T07:35:59.078Z,9.40
2017-10-27T07:38:27.462Z,9.40
2017-10-27T07:40:55.832Z,9.40
2017-10-27T07:43:24.314Z,9.40
2017-10-27T07:45:52.661Z,9.30
2017-10-27T07:48:20.242Z,9.30
2017-10-27T07:50:48.629Z,9.20
2017-10-27T07:53:16.997Z,9.20
2017-10-27T07:55:45.346Z,9.20
2017-10-27T07:58:13.033Z,9.20
2017-10-27T08:00:41.519Z,9.20
2017-10-27T08:03:09.872Z,9.10
2017-10-27T08:05:38.966Z,9.10
2017-10-27T08:08:06.583Z,9.10
2017-10-27T08:10:34.209Z,9.20
2017-10-27T08:13:02.688Z,9.40
2017-10-27T08:15:31.077Z,9.50
2017-10-27T08:17:59.422Z,9.40
2017-10-27T08:20:27.097Z,9.40
2017-10-27T08:22:55.481Z,9.50
2017-10-27T08:25:23.822Z,9.50
2017-10-27T08:27:51.402Z,9.50
2017-10-27T08:30:19.018Z,9.50
2017-10-27T08:32:46.593Z,9.50
2017-10-27T08:35:14.174Z,9.50
2017-10-27T08:37:41.782Z,9.50
2017-10-27T08:40:09.409Z,9.50
2017-10-27T08:42:37.795Z,9.40
2017-10-27T08:45:06.165Z,9.40
2017-10-27T08:47:34.555Z,9.40
2017-10-27T08:50:02.131Z,9.30
2017-10-27T08:52:29.710Z,9.30
2017-10-27T08:54:57.326Z,9.20
2017-10-27T08:57:25.666Z,9.10
2017-10-27T08:59:53.242Z,9.10
2017-10-27T09:02:20.838Z,9.10
2017-10-27T09:04:48.470Z,9.10
2017-10-27T09:07:16.814Z,9.30
2017-10-27T09:09:44.510Z,9.30
2017-10-27T09:12:12.899Z,9.60
2017-10-27T09:14:40.478Z,9.60
2017-10-27T09:17:08.063Z,9.60
2017-10-27T09:19:35.772Z,9.50
2017-10-27T09:22:04.114Z,9.50
2017-10-27T09:24:31.694Z,9.40
2017-10-27T09:27:00.062Z,9.40
2017-10-27T09:29:27.742Z,9.30
2017-10-27T09:31:56.082Z,9.30
2017-10-27T09:34:23.658Z,9.20
2017-10-27T09:36:51.274Z,9.20
2017-10-27T09:39:18.892Z,9.20
2017-10-27T09:41:47.271Z,9.40
2017-10-27T09:44:15.746Z,9.50
2017-10-27T09:46:44.095Z,9.40
2017-10-27T09:49:11.690Z,9.40
2017-10-27T09:51:40.054Z,9.40
2017-10-27T09:54:08.411Z,9.40
2017-10-27T09:56:36.033Z,9.40
2017-10-27T09:59:03.659Z,9.40
2017-10-27T10:01:32.005Z,9.30
2017-10-27T10:03:59.622Z,9.30
2017-10-27T10:06:27.204Z,9.40
2017-10-27T10:08:54.805Z,9.60
2017-10-27T10:11:22.475Z,9.70
2017-10-27T10:13:50.821Z,9.90
2017-10-27T10:16:18.509Z,9.80
2017-10-27T10:18:46.873Z,9.80
2017-10-27T10:21:14.454Z,9.80
2017-10-27T10:23:42.817Z,9.60
2017-10-27T10:26:11.198Z,9.60
2017-10-27T10:28:39.538Z,9.80
2017-10-27T10:31:07.254Z,9.80
2017-10-27T10:33:34.850Z,10.00
2017-10-27T10:36:02.436Z,9.80
2017-10-27T10:38:30.033Z,9.80
2017-10-27T10:40:57.606Z,9.80
2017-10-27T10:43:25.181Z,9.90
2017-10-27T10:45:52.801Z,10.00
2017-10-27T10:48:21.270Z,10.20
2017-10-27T10:50:49.650Z,10.00
2017-10-27T10:53:18.088Z,9.80
2017-10-27T10:55:45.662Z,9.80
2017-10-27T10:58:14.010Z,9.50
2017-10-27T11:00:41.634Z,9.40
2017-10-27T11:03:09.994Z,9.40
2017-10-27T11:05:38.334Z,9.40
2017-10-27T11:08:06.021Z,9.40
2017-10-27T11:10:33.603Z,9.50
2017-10-27T11:13:01.989Z,9.80
2017-10-27T11:15:29.580Z,9.80
2017-10-27T11:17:57.166Z,9.90
2017-10-27T11:20:24.968Z,10.00
2017-10-27T11:22:52.550Z,10.00
2017-10-27T11:25:20.138Z,10.10
2017-10-27T11:27:47.758Z,10.30
2017-10-27T11:30:15.353Z,10.40
2017-10-27T11:32:42.945Z,10.50
2017-10-27T11:35:11.330Z,10.40
2017-10-27T11:37:39.674Z,10.30
2017-10-27T11:40:07.314Z,10.30
2017-10-27T11:42:34.902Z,10.30
2017-10-27T11:45:02.592Z,10.20
2017-10-27T11:47:30.995Z,10.00
2017-10-27T11:49:58.574Z,10.00
2017-10-27T11:52:26.160Z,10.00
2017-10-27T11:54:53.835Z,10.00
2017-10-27T11:57:22.191Z,10.10
2017-10-27T11:59:49.885Z,10.00
2017-10-27T12:02:18.252Z,10.30
2017-10-27T12:04:46.626Z,10.40
2017-10-27T12:07:15.059Z,10.70
2017-10-27T12:09:42.638Z,10.60
2017-10-27T12:12:10.272Z,10.60
2017-10-27T12:14:37.947Z,10.50
2017-10-27T12:17:05.552Z,10.50
2017-10-27T12:19:33.940Z,10.30
2017-10-27T12:22:01.599Z,10.40
2017-10-27T12:24:29.942Z,10.20
2017-10-27T12:26:58.374Z,10.30
2017-10-27T12:29:25.954Z,10.20
2017-10-27T12:31:53.530Z,10.40
2017-10-27T12:34:21.130Z,10.50
2017-10-27T12:36:49.544Z,10.50
2017-10-27T12:39:17.134Z,10.40
2017-10-27T12:41:44.761Z,10.50
2017-10-27T12:44:12.342Z,10.40
2017-10-27T12:46:40.039Z,10.50
2017-10-27T12:49:08.410Z,10.40
2017-10-27T12:51:36.761Z,10.20
2017-10-27T12:54:04.374Z,10.10
2017-10-27T12:56:31.950Z,9.90
2017-10-27T12:58:59.565Z,9.40
2017-10-27T13:01:27.991Z,9.30
2017-10-27T13:03:55.606Z,9.30
2017-10-27T13:06:23.945Z,9.50
2017-10-27T13:08:51.593Z,9.50
2017-10-27T13:11:19.166Z,9.70
2017-10-27T13:13:46.742Z,9.80
2017-10-27T13:16:15.981Z,9.90
2017-10-27T13:18:43.571Z,9.90
2017-10-27T13:21:11.174Z,10.10
2017-10-27T13:23:39.554Z,10.10
2017-10-27T13:26:07.901Z,10.20
2017-10-27T13:28:35.574Z,10.10
2017-10-27T13:31:03.961Z,10.10
2017-10-27T13:33:32.354Z,10.10
2017-10-27T13:35:59.935Z,10.10
2017-10-27T13:38:27.515Z,10.10
2017-10-27T13:40:55.217Z,10.10
2017-10-27T13:43:23.562Z,10.10
2017-10-27T13:45:51.147Z,10.00
2017-10-27T13:48:19.570Z,10.00
2017-10-27T13:50:47.153Z,10.00
2017-10-27T13:53:14.747Z,10.10
2017-10-27T13:55:43.226Z,10.10
2017-10-27T13:58:11.573Z,10.10
2017-10-27T14:00:39.157Z,10.10
2017-10-27T14:03:07.522Z,9.70
2017-10-27T14:05:35.208Z,9.70
2017-10-27T14:08:03.686Z,9.30
2017-10-27T14:10:32.025Z,9.20
2017-10-27T14:12:59.605Z,9.20
2017-10-27T14:15:27.226Z,9.10
2017-10-27T14:17:54.835Z,8.90
2017-10-27T14:20:23.178Z,8.90
2017-10-27T14:22:50.926Z,8.90
2017-10-27T14:25:18.534Z,9.00
2017-10-27T14:27:46.922Z,8.90
2017-10-27T14:30:15.259Z,8.90
2017-10-27T14:32:42.831Z,8.90
2017-10-27T14:35:10.512Z,8.90
2017-10-27T14:37:38.859Z,8.90
2017-10-27T14:40:06.447Z,8.90
2017-10-27T14:42:34.812Z,9.00
2017-10-27T14:45:02.386Z,9.00
2017-10-27T14:47:30.871Z,9.10
2017-10-27T14:49:58.456Z,9.10
2017-10-27T14:52:26.124Z,9.10
2017-10-27T14:54:53.839Z,9.10
2017-10-27T14:57:22.182Z,9.10
2017-10-27T14:59:49.757Z,9.00
2017-10-27T15:02:17.392Z,9.10
2017-10-27T15:04:44.989Z,9.00
2017-10-27T15:07:13.370Z,9.10
2017-10-27T15:09:42.156Z,9.10
2017-10-27T15:12:09.786Z,9.10
2017-10-27T15:14:37.418Z,9.10
2017-10-27T15:17:05.182Z,9.10
2017-10-27T15:19:32.766Z,9.10
2017-10-27T15:22:00.393Z,9.10
2017-10-27T15:24:27.982Z,9.10
2017-10-27T15:26:55.562Z,9.10
2017-10-27T15:29:23.199Z,9.10
2017-10-27T15:31:50.774Z,9.10
2017-10-27T15:34:18.363Z,9.10
2017-10-27T15:36:45.974Z,9.10
2017-10-27T15:39:13.570Z,9.10
2017-10-27T15:41:41.927Z,9.10
2017-10-27T15:44:09.605Z,9.10
2017-10-27T15:46:37.955Z,9.10
2017-10-27T15:49:05.534Z,9.10
2017-10-27T15:51:33.158Z,9.10
2017-10-27T15:54:00.739Z,9.10
2017-10-27T15:56:28.319Z,9.10
2017-10-27T15:58:56.709Z,9.10
2017-10-27T16:01:25.046Z,9.10
2017-10-27T16:03:52.622Z,9.10
2017-10-27T16:06:20.234Z,9.10
2017-10-27T16:08:47.807Z,9.10
2017-10-27T16:11:15.397Z,9.10
2017-10-27T16:13:42.994Z,9.00
2017-10-27T16:16:10.577Z,9.00
2017-10-27T16:18:38.239Z,9.00
2017-10-27T16:21:05.825Z,9.00
2017-10-27T16:23:33.402Z,9.00
2017-10-27T16:26:01.782Z,9.00
2017-10-27T16:28:30.927Z,9.10
2017-10-27T16:30:58.549Z,9.10
2017-10-27T16:33:28.178Z,9.10
2017-10-27T16:35:55.991Z,9.00
2017-10-27T16:38:23.565Z,9.00
2017-10-27T16:40:51.926Z,9.10
2017-10-27T16:43:20.022Z,9.10
2017-10-27T16:45:48.422Z,9.10
2017-10-27T16:48:16.016Z,9.10
2017-10-27T16:50:44.099Z,9.10
2017-10-27T16:53:11.698Z,9.10
2017-10-27T16:55:39.338Z,9.10
2017-10-27T16:58:07.741Z,9.10
2017-10-27T17:00:35.327Z,9.10
2017-10-27T17:03:02.953Z,9.10
2017-10-27T17:05:30.557Z,9.10
2017-10-27T17:07:58.137Z,9.20
2017-10-27T17:10:25.814Z,9.20
2017-10-27T17:12:54.244Z,9.20
2017-10-27T17:15:22.733Z,9.20
2017-10-27T17:17:50.713Z,9.20
2017-10-27T17:20:18.305Z,9.20
2017-10-27T17:22:46.728Z,9.20
2017-10-27T17:25:14.437Z,9.10
2017-10-27T17:27:42.858Z,9.20
2017-10-27T17:30:10.434Z,9.20
2017-10-27T17:32:38.142Z,9.20
2017-10-27T17:35:06.634Z,9.20
2017-10-27T17:37:34.486Z,9.20
2017-10-27T17:40:02.929Z,9.10
2017-10-27T17:42:30.522Z,9.10
2017-10-27T17:44:58.894Z,9.10
2017-10-27T17:47:27.258Z,9.10
2017-10-27T17:49:54.937Z,9.10
2017-10-27T17:52:23.389Z,9.10
2017-10-27T17:54:50.961Z,9.10
2017-10-27T17:57:18.641Z,9.10
2017-10-27T17:59:46.262Z,9.10
2017-10-27T18:02:13.838Z,9.10
2017-10-27T18:04:41.442Z,9.10
2017-10-27T18:07:09.081Z,9.10
2017-10-27T18:09:37.549Z,9.00
2017-10-27T18:12:05.934Z,9.00
2017-10-27T18:14:34.318Z,9.00
2017-10-27T18:17:02.799Z,9.00
2017-10-27T18:19:31.169Z,9.00
2017-10-27T18:21:59.515Z,9.00
2017-10-27T18:24:28.068Z,9.00
2017-10-27T18:26:55.786Z,9.00
2017-10-27T18:29:24.135Z,9.00
2017-10-27T18:31:51.731Z,9.00
2017-10-27T18:34:20.106Z,9.00
2017-10-27T18:36:48.553Z,8.90
2017-10-27T18:39:16.134Z,8.90
2017-10-27T18:41:44.511Z,8.90
2017-10-27T18:44:12.854Z,8.90
2017-10-27T18:46:40.502Z,8.80
2017-10-27T18:49:08.091Z,8.90
2017-10-27T18:51:37.988Z,8.90
2017-10-27T18:54:05.789Z,8.90
2017-10-27T18:56:34.585Z,8.80
2017-10-27T18:59:02.389Z,8.80
2017-10-27T19:01:29.974Z,8.80
2017-10-27T19:03:57.666Z,8.90
2017-10-27T19:06:26.033Z,8.70
2017-10-27T19:08:53.626Z,8.70
2017-10-27T19:11:21.229Z,8.70
2017-10-27T19:13:48.807Z,8.70
2017-10-27T19:16:17.149Z,8.80
2017-10-27T19:18:44.846Z,8.80
2017-10-27T19:21:13.202Z,8.70
2017-10-27T19:23:40.878Z,8.70
2017-10-27T19:26:08.481Z,8.70
2017-10-27T19:28:36.208Z,8.70
2017-10-27T19:31:04.582Z,8.70
2017-10-27T19:33:32.921Z,8.60
2017-10-27T19:36:00.547Z,8.60
2017-10-27T19:38:28.126Z,8.60
2017-10-27T19:40:55.715Z,8.50
2017-10-27T19:43:23.318Z,8.50
2017-10-27T19:45:50.890Z,8.40
2017-10-27T19:48:18.549Z,8.40
2017-10-27T19:50:46.125Z,8.40
2017-10-27T19:53:13.725Z,8.40
2017-10-27T19:55:41.394Z,8.40
2017-10-27T19:58:09.733Z,8.40
2017-10-27T20:00:37.359Z,8.40
2017-10-27T20:03:04.935Z,8.40
2017-10-27T20:05:32.554Z,8.40
2017-10-27T20:08:00.929Z,8.50
2017-10-27T20:10:29.313Z,8.50
2017-10-27T20:12:57.782Z,8.50
2017-10-27T20:15:26.161Z,8.50
2017-10-27T20:17:54.826Z,8.50
2017-10-27T20:20:22.614Z,8.50
2017-10-27T20:22:50.967Z,8.60
2017-10-27T20:25:19.415Z,8.60
2017-10-27T20:27:47.126Z,8.60
2017-10-27T20:30:15.574Z,8.50
2017-10-27T20:32:43.258Z,8.60
2017-10-27T20:35:11.642Z,8.50
2017-10-27T20:37:39.982Z,8.60
2017-10-27T20:40:07.678Z,8.50
2017-10-27T20:42:36.036Z,8.60
2017-10-27T20:45:03.668Z,8.60
2017-10-27T20:47:31.305Z,8.60
2017-10-27T20:49:58.928Z,8.60
2017-10-27T20:52:27.270Z,8.70
2017-10-27T20:54:55.084Z,8.70
2017-10-27T20:57:23.438Z,8.70
2017-10-27T20:59:51.116Z,8.70
2017-10-27T21:02:19.483Z,8.70
2017-10-27T21:04:47.846Z,8.70
2017-10-27T21:07:15.526Z,8.70
2017-10-27T21:09:43.871Z,8.70
2017-10-27T21:12:11.453Z,8.70
2017-10-27T21:14:39.994Z,8.70
2017-10-27T21:17:07.655Z,8.70
2017-10-27T21:19:35.528Z,8.80
2017-10-27T21:22:03.563Z,8.70
2017-10-27T21:24:31.179Z,8.70
2017-10-27T21:26:58.919Z,8.70
2017-10-27T21:29:26.762Z,8.70
2017-10-27T21:31:54.471Z,8.70
2017-10-27T21:34:22.135Z,8.70
2017-10-27T21:36:50.534Z,8.70
2017-10-27T21:39:19.181Z,8.60
2017-10-27T21:41:46.754Z,8.60
2017-10-27T21:44:15.166Z,8.60
2017-10-27T21:46:42.949Z,8.60
2017-10-27T21:49:10.529Z,8.60
2017-10-27T21:51:38.179Z,8.60
2017-10-27T21:54:05.762Z,8.60
2017-10-27T21:56:33.343Z,8.60
2017-10-27T21:59:01.830Z,8.70
2017-10-27T22:01:29.422Z,8.70
2017-10-27T22:03:57.002Z,8.70
2017-10-27T22:06:24.614Z,8.70
2017-10-27T22:08:52.954Z,8.60
2017-10-27T22:11:20.529Z,8.60
2017-10-27T22:13:48.153Z,8.60
2017-10-27T22:16:15.739Z,8.60
2017-10-27T22:18:43.343Z,8.60
2017-10-27T22:21:10.930Z,8.60
2017-10-27T22:23:39.300Z,8.50
2017-10-27T22:26:06.990Z,8.50
2017-10-27T22:28:34.622Z,8.50
